Munster, North Dakota
Current Conditions -  °F | °C
As of 3:35 PM on Thursday 23 Oct 2014 (Local Time) from K46D Reporting Station
Clear Clear  
Wind Chill: 66°   Ceiling: Unl
Heat Index: 66°   Visibility: 10mi
Dew Point: 36°   Wind: 14mph
Humidity: 32%   Direction: 260°W
Pressure: 29.82"   Gusts: NA
Location:  47.6736°N, 98.8981°W
Report Text: K46D 232035Z AUTO 26012KT 10SM CLR 19/02 A2982 RMK AO2
Loading
Personal Weather Stations






























Interactive Weather Map
Tropical Storm Tracking
New forecast layout! Learn more

10-Day Weather Forecast

Advertisements
Track Severe Weather on mobile